Gildford, Montana
Current Conditions -  °F | °C
As of 7:53 PM on Tuesday 21 Oct 2014 (Local Time) from KHVR Reporting Station
Overcast Overcast  
Wind Chill: 50°   Ceiling: 4100
Heat Index: 50°   Visibility: 10mi
Dew Point: 48°   Wind: 13mph
Humidity: 93%   Direction: 220°SW
Pressure: 29.77"   Gusts: NA
Location:  48.56°N, 110.3°W
Report Text: KHVR 220153Z AUTO 22011KT 10SM FEW010 OVC041 10/09 A2977 RMK AO2 RAB0056E43 SLP093 P0000 T01000089
Loading
Personal Weather Stations






























Interactive Weather Map
Tropical Storm Tracking
New forecast layout! Learn more

10-Day Weather Forecast

Advertisements
Track Severe Weather on mobile